sensor_id;sensor_type;location;lat;lon;timestamp;P1;durP1;ratioP1;P2;durP2;ratioP2
67602;SDS011;54417;47.454;18.918;2022-10-29T00:03:58;54.83;;;24.58;;
67602;SDS011;54417;47.454;18.918;2022-10-29T00:09:23;71.78;;;27.50;;
67602;SDS011;54417;47.454;18.918;2022-10-29T00:14:47;63.47;;;27.13;;
67602;SDS011;54417;47.454;18.918;2022-10-29T00:20:10;63.03;;;26.67;;
67602;SDS011;54417;47.454;18.918;2022-10-29T00:25:35;73.65;;;28.92;;
67602;SDS011;54417;47.454;18.918;2022-10-29T00:31:01;68.03;;;27.27;;
67602;SDS011;54417;47.454;18.918;2022-10-29T00:36:26;74.85;;;29.73;;
67602;SDS011;54417;47.454;18.918;2022-10-29T00:41:52;66.75;;;26.83;;
67602;SDS011;54417;47.454;18.918;2022-10-29T00:47:18;67.28;;;27.50;;
67602;SDS011;54417;47.454;18.918;2022-10-29T00:52:45;66.15;;;25.52;;
67602;SDS011;54417;47.454;18.918;2022-10-29T00:58:13;68.22;;;25.42;;
67602;SDS011;54417;47.454;18.918;2022-10-29T01:03:37;71.88;;;25.27;;
67602;SDS011;54417;47.454;18.918;2022-10-29T01:09:01;63.10;;;25.55;;
67602;SDS011;54417;47.454;18.918;2022-10-29T01:14:29;70.28;;;26.90;;
67602;SDS011;54417;47.454;18.918;2022-10-29T01:20:06;75.68;;;27.63;;
67602;SDS011;54417;47.454;18.918;2022-10-29T01:25:56;79.90;;;26.20;;
67602;SDS011;54417;47.454;18.918;2022-10-29T01:31:36;68.97;;;25.17;;
67602;SDS011;54417;47.454;18.918;2022-10-29T01:37:07;71.37;;;25.07;;
67602;SDS011;54417;47.454;18.918;2022-10-29T01:42:39;66.03;;;22.27;;
67602;SDS011;54417;47.454;18.918;2022-10-29T01:48:07;60.85;;;21.95;;
67602;SDS011;54417;47.454;18.918;2022-10-29T01:53:34;57.38;;;23.02;;
67602;SDS011;54417;47.454;18.918;2022-10-29T01:58:59;51.35;;;20.38;;
67602;SDS011;54417;47.454;18.918;2022-10-29T02:04:33;53.40;;;21.65;;
67602;SDS011;54417;47.454;18.918;2022-10-29T02:10:18;57.30;;;22.05;;
67602;SDS011;54417;47.454;18.918;2022-10-29T02:15:52;58.70;;;20.27;;
67602;SDS011;54417;47.454;18.918;2022-10-29T02:21:20;56.60;;;21.98;;
67602;SDS011;54417;47.454;18.918;2022-10-29T02:26:44;41.70;;;19.88;;
67602;SDS011;54417;47.454;18.918;2022-10-29T02:32:10;47.58;;;19.73;;
67602;SDS011;54417;47.454;18.918;2022-10-29T02:37:35;48.45;;;20.20;;
67602;SDS011;54417;47.454;18.918;2022-10-29T02:42:59;58.65;;;22.20;;
67602;SDS011;54417;47.454;18.918;2022-10-29T02:48:23;57.95;;;21.60;;
67602;SDS011;54417;47.454;18.918;2022-10-29T02:53:48;56.28;;;20.10;;
67602;SDS011;54417;47.454;18.918;2022-10-29T02:59:12;58.42;;;22.00;;
67602;SDS011;54417;47.454;18.918;2022-10-29T03:04:36;62.63;;;24.88;;
67602;SDS011;54417;47.454;18.918;2022-10-29T03:10:04;63.10;;;23.92;;
67602;SDS011;54417;47.454;18.918;2022-10-29T03:15:29;60.30;;;23.90;;
67602;SDS011;54417;47.454;18.918;2022-10-29T03:20:52;49.60;;;22.20;;
67602;SDS011;54417;47.454;18.918;2022-10-29T03:26:20;55.80;;;22.05;;
67602;SDS011;54417;47.454;18.918;2022-10-29T03:31:44;51.10;;;22.05;;
67602;SDS011;54417;47.454;18.918;2022-10-29T03:37:07;57.63;;;24.10;;
67602;SDS011;54417;47.454;18.918;2022-10-29T03:42:32;66.57;;;25.08;;
67602;SDS011;54417;47.454;18.918;2022-10-29T03:47:56;58.22;;;22.30;;
67602;SDS011;54417;47.454;18.918;2022-10-29T03:53:20;54.08;;;23.20;;
67602;SDS011;54417;47.454;18.918;2022-10-29T03:58:45;49.05;;;21.90;;
67602;SDS011;54417;47.454;18.918;2022-10-29T04:04:08;40.40;;;19.33;;
67602;SDS011;54417;47.454;18.918;2022-10-29T04:09:32;48.30;;;19.73;;
67602;SDS011;54417;47.454;18.918;2022-10-29T04:14:57;50.00;;;19.67;;
67602;SDS011;54417;47.454;18.918;2022-10-29T04:20:21;50.97;;;18.20;;
67602;SDS011;54417;47.454;18.918;2022-10-29T04:26:04;53.85;;;20.55;;
67602;SDS011;54417;47.454;18.918;2022-10-29T04:31:49;44.85;;;18.42;;
67602;SDS011;54417;47.454;18.918;2022-10-29T04:37:13;41.03;;;18.58;;
67602;SDS011;54417;47.454;18.918;2022-10-29T04:42:37;38.28;;;17.80;;
67602;SDS011;54417;47.454;18.918;2022-10-29T04:48:03;32.38;;;15.30;;
67602;SDS011;54417;47.454;18.918;2022-10-29T04:53:28;37.95;;;17.30;;
67602;SDS011;54417;47.454;18.918;2022-10-29T04:58:51;37.92;;;18.15;;
67602;SDS011;54417;47.454;18.918;2022-10-29T05:04:16;47.70;;;20.63;;
67602;SDS011;54417;47.454;18.918;2022-10-29T05:09:40;44.97;;;20.20;;
67602;SDS011;54417;47.454;18.918;2022-10-29T05:15:04;59.63;;;22.80;;
67602;SDS011;54417;47.454;18.918;2022-10-29T05:20:30;62.00;;;23.13;;
67602;SDS011;54417;47.454;18.918;2022-10-29T05:25:54;57.47;;;22.25;;
67602;SDS011;54417;47.454;18.918;2022-10-29T05:31:18;49.38;;;21.13;;
67602;SDS011;54417;47.454;18.918;2022-10-29T05:36:43;52.08;;;20.83;;
67602;SDS011;54417;47.454;18.918;2022-10-29T05:42:07;54.67;;;20.15;;
67602;SDS011;54417;47.454;18.918;2022-10-29T05:47:30;54.65;;;21.80;;
67602;SDS011;54417;47.454;18.918;2022-10-29T05:52:56;51.40;;;21.20;;
67602;SDS011;54417;47.454;18.918;2022-10-29T05:58:20;50.55;;;19.90;;
67602;SDS011;54417;47.454;18.918;2022-10-29T06:03:44;41.47;;;18.25;;
67602;SDS011;54417;47.454;18.918;2022-10-29T06:09:09;38.70;;;17.70;;
67602;SDS011;54417;47.454;18.918;2022-10-29T06:14:33;34.75;;;17.70;;
67602;SDS011;54417;47.454;18.918;2022-10-29T06:19:57;33.35;;;16.58;;
67602;SDS011;54417;47.454;18.918;2022-10-29T06:25:22;32.63;;;15.63;;
67602;SDS011;54417;47.454;18.918;2022-10-29T06:30:46;30.20;;;14.55;;
67602;SDS011;54417;47.454;18.918;2022-10-29T06:36:10;27.67;;;15.90;;
67602;SDS011;54417;47.454;18.918;2022-10-29T06:41:35;26.30;;;15.57;;
67602;SDS011;54417;47.454;18.918;2022-10-29T06:47:00;24.58;;;14.48;;
67602;SDS011;54417;47.454;18.918;2022-10-29T06:52:23;28.15;;;17.05;;
67602;SDS011;54417;47.454;18.918;2022-10-29T06:57:48;29.88;;;15.90;;
67602;SDS011;54417;47.454;18.918;2022-10-29T07:08:42;26.58;;;14.60;;
67602;SDS011;54417;47.454;18.918;2022-10-29T07:14:07;33.97;;;16.00;;
67602;SDS011;54417;47.454;18.918;2022-10-29T07:19:31;39.78;;;17.80;;
67602;SDS011;54417;47.454;18.918;2022-10-29T07:24:55;38.50;;;17.30;;
67602;SDS011;54417;47.454;18.918;2022-10-29T07:30:23;38.45;;;18.95;;
67602;SDS011;54417;47.454;18.918;2022-10-29T07:35:47;39.90;;;19.40;;
67602;SDS011;54417;47.454;18.918;2022-10-29T07:41:10;39.80;;;20.38;;
67602;SDS011;54417;47.454;18.918;2022-10-29T07:46:35;40.22;;;18.58;;
67602;SDS011;54417;47.454;18.918;2022-10-29T07:51:59;39.58;;;18.45;;
67602;SDS011;54417;47.454;18.918;2022-10-29T07:57:23;41.55;;;20.38;;
67602;SDS011;54417;47.454;18.918;2022-10-29T08:02:51;45.33;;;20.65;;
67602;SDS011;54417;47.454;18.918;2022-10-29T08:08:15;43.53;;;20.83;;
67602;SDS011;54417;47.454;18.918;2022-10-29T08:13:39;43.58;;;21.55;;
67602;SDS011;54417;47.454;18.918;2022-10-29T08:19:04;45.40;;;21.75;;
67602;SDS011;54417;47.454;18.918;2022-10-29T08:24:28;48.88;;;22.30;;
67602;SDS011;54417;47.454;18.918;2022-10-29T08:29:51;51.83;;;24.33;;
67602;SDS011;54417;47.454;18.918;2022-10-29T08:35:16;54.90;;;24.55;;
67602;SDS011;54417;47.454;18.918;2022-10-29T08:40:43;59.35;;;27.70;;
67602;SDS011;54417;47.454;18.918;2022-10-29T08:46:16;57.45;;;27.30;;
67602;SDS011;54417;47.454;18.918;2022-10-29T08:51:46;46.22;;;23.15;;
67602;SDS011;54417;47.454;18.918;2022-10-29T08:57:14;45.28;;;22.70;;
67602;SDS011;54417;47.454;18.918;2022-10-29T09:02:39;53.05;;;23.95;;
67602;SDS011;54417;47.454;18.918;2022-10-29T09:08:08;52.38;;;24.80;;
67602;SDS011;54417;47.454;18.918;2022-10-29T09:13:43;48.80;;;23.80;;
67602;SDS011;54417;47.454;18.918;2022-10-29T09:19:17;49.90;;;24.38;;
67602;SDS011;54417;47.454;18.918;2022-10-29T09:24:53;48.88;;;24.60;;
67602;SDS011;54417;47.454;18.918;2022-10-29T09:30:24;46.90;;;23.85;;
67602;SDS011;54417;47.454;18.918;2022-10-29T09:35:53;38.97;;;20.75;;
67602;SDS011;54417;47.454;18.918;2022-10-29T09:41:19;40.45;;;20.20;;
67602;SDS011;54417;47.454;18.918;2022-10-29T09:46:46;42.28;;;18.95;;
67602;SDS011;54417;47.454;18.918;2022-10-29T09:52:19;34.22;;;18.45;;
67602;SDS011;54417;47.454;18.918;2022-10-29T09:57:46;34.42;;;18.15;;
67602;SDS011;54417;47.454;18.918;2022-10-29T10:03:11;32.42;;;18.80;;
67602;SDS011;54417;47.454;18.918;2022-10-29T10:08:56;38.43;;;21.53;;
67602;SDS011;54417;47.454;18.918;2022-10-29T10:14:23;39.33;;;20.63;;
67602;SDS011;54417;47.454;18.918;2022-10-29T10:19:48;36.92;;;21.13;;
67602;SDS011;54417;47.454;18.918;2022-10-29T10:25:18;43.05;;;23.58;;
67602;SDS011;54417;47.454;18.918;2022-10-29T10:31:11;47.75;;;24.48;;
67602;SDS011;54417;47.454;18.918;2022-10-29T10:36:37;47.50;;;22.90;;
67602;SDS011;54417;47.454;18.918;2022-10-29T10:42:04;41.75;;;21.92;;
67602;SDS011;54417;47.454;18.918;2022-10-29T10:47:39;34.22;;;20.25;;
67602;SDS011;54417;47.454;18.918;2022-10-29T10:53:14;43.70;;;20.70;;
67602;SDS011;54417;47.454;18.918;2022-10-29T10:58:41;33.65;;;19.77;;
67602;SDS011;54417;47.454;18.918;2022-10-29T11:04:12;37.33;;;21.00;;
67602;SDS011;54417;47.454;18.918;2022-10-29T11:09:40;35.03;;;21.17;;
67602;SDS011;54417;47.454;18.918;2022-10-29T11:15:11;35.58;;;21.23;;
67602;SDS011;54417;47.454;18.918;2022-10-29T11:20:38;33.83;;;20.13;;
67602;SDS011;54417;47.454;18.918;2022-10-29T11:26:07;37.17;;;21.60;;
67602;SDS011;54417;47.454;18.918;2022-10-29T11:31:39;39.97;;;21.63;;
67602;SDS011;54417;47.454;18.918;2022-10-29T11:37:10;42.05;;;22.23;;
67602;SDS011;54417;47.454;18.918;2022-10-29T11:42:40;37.25;;;21.38;;
67602;SDS011;54417;47.454;18.918;2022-10-29T11:48:08;36.80;;;20.60;;
67602;SDS011;54417;47.454;18.918;2022-10-29T11:53:51;37.22;;;19.50;;
67602;SDS011;54417;47.454;18.918;2022-10-29T11:59:25;39.08;;;20.38;;
67602;SDS011;54417;47.454;18.918;2022-10-29T12:04:59;44.30;;;23.33;;
67602;SDS011;54417;47.454;18.918;2022-10-29T12:10:33;43.08;;;23.02;;
67602;SDS011;54417;47.454;18.918;2022-10-29T12:16:06;38.30;;;22.23;;
67602;SDS011;54417;47.454;18.918;2022-10-29T12:21:39;38.17;;;20.00;;
67602;SDS011;54417;47.454;18.918;2022-10-29T12:32:37;37.03;;;20.63;;
67602;SDS011;54417;47.454;18.918;2022-10-29T12:38:15;30.63;;;18.17;;
67602;SDS011;54417;47.454;18.918;2022-10-29T12:43:48;35.17;;;20.17;;
67602;SDS011;54417;47.454;18.918;2022-10-29T12:49:14;29.02;;;17.27;;
67602;SDS011;54417;47.454;18.918;2022-10-29T12:54:45;29.85;;;18.38;;
67602;SDS011;54417;47.454;18.918;2022-10-29T13:12:08;27.85;;;18.35;;
67602;SDS011;54417;47.454;18.918;2022-10-29T13:17:35;33.55;;;18.75;;
67602;SDS011;54417;47.454;18.918;2022-10-29T13:23:01;28.70;;;18.58;;
67602;SDS011;54417;47.454;18.918;2022-10-29T13:28:48;29.23;;;18.05;;
67602;SDS011;54417;47.454;18.918;2022-10-29T13:46:31;27.17;;;17.63;;
67602;SDS011;54417;47.454;18.918;2022-10-29T13:52:16;28.70;;;17.50;;
67602;SDS011;54417;47.454;18.918;2022-10-29T13:57:42;32.03;;;18.60;;
67602;SDS011;54417;47.454;18.918;2022-10-29T14:03:15;27.23;;;17.50;;
67602;SDS011;54417;47.454;18.918;2022-10-29T14:08:46;28.52;;;17.90;;
67602;SDS011;54417;47.454;18.918;2022-10-29T14:14:19;28.27;;;18.20;;
67602;SDS011;54417;47.454;18.918;2022-10-29T14:19:48;29.35;;;17.90;;
67602;SDS011;54417;47.454;18.918;2022-10-29T14:25:30;31.60;;;18.08;;
67602;SDS011;54417;47.454;18.918;2022-10-29T14:30:58;25.90;;;16.42;;
67602;SDS011;54417;47.454;18.918;2022-10-29T14:36:30;30.63;;;17.05;;
67602;SDS011;54417;47.454;18.918;2022-10-29T14:41:59;29.90;;;17.17;;
67602;SDS011;54417;47.454;18.918;2022-10-29T14:47:24;32.15;;;17.15;;
67602;SDS011;54417;47.454;18.918;2022-10-29T14:52:55;30.38;;;17.13;;
67602;SDS011;54417;47.454;18.918;2022-10-29T14:58:23;30.50;;;18.73;;
67602;SDS011;54417;47.454;18.918;2022-10-29T15:03:54;27.75;;;18.65;;
67602;SDS011;54417;47.454;18.918;2022-10-29T15:09:20;31.47;;;18.50;;
67602;SDS011;54417;47.454;18.918;2022-10-29T15:14:50;35.80;;;19.20;;
67602;SDS011;54417;47.454;18.918;2022-10-29T15:20:18;31.80;;;19.75;;
67602;SDS011;54417;47.454;18.918;2022-10-29T15:25:43;33.63;;;20.02;;
67602;SDS011;54417;47.454;18.918;2022-10-29T15:31:15;38.45;;;20.92;;
67602;SDS011;54417;47.454;18.918;2022-10-29T15:36:44;39.05;;;20.38;;
67602;SDS011;54417;47.454;18.918;2022-10-29T15:42:13;37.55;;;21.45;;
67602;SDS011;54417;47.454;18.918;2022-10-29T15:47:45;38.80;;;21.02;;
67602;SDS011;54417;47.454;18.918;2022-10-29T15:53:10;36.88;;;22.45;;
67602;SDS011;54417;47.454;18.918;2022-10-29T15:58:37;45.80;;;23.50;;
67602;SDS011;54417;47.454;18.918;2022-10-29T16:04:02;45.00;;;24.80;;
67602;SDS011;54417;47.454;18.918;2022-10-29T16:09:26;46.58;;;24.73;;
67602;SDS011;54417;47.454;18.918;2022-10-29T16:14:50;45.70;;;25.20;;
67602;SDS011;54417;47.454;18.918;2022-10-29T16:20:15;41.08;;;23.38;;
67602;SDS011;54417;47.454;18.918;2022-10-29T16:25:41;45.47;;;24.10;;
67602;SDS011;54417;47.454;18.918;2022-10-29T16:31:04;50.22;;;23.33;;
67602;SDS011;54417;47.454;18.918;2022-10-29T16:36:40;44.75;;;23.63;;
67602;SDS011;54417;47.454;18.918;2022-10-29T16:42:04;46.75;;;24.13;;
67602;SDS011;54417;47.454;18.918;2022-10-29T16:47:28;50.35;;;25.90;;
67602;SDS011;54417;47.454;18.918;2022-10-29T16:52:56;47.28;;;26.17;;
67602;SDS011;54417;47.454;18.918;2022-10-29T16:58:20;48.10;;;25.60;;
67602;SDS011;54417;47.454;18.918;2022-10-29T17:03:44;49.10;;;25.17;;
67602;SDS011;54417;47.454;18.918;2022-10-29T17:09:14;51.72;;;26.35;;
67602;SDS011;54417;47.454;18.918;2022-10-29T17:14:44;50.63;;;26.33;;
67602;SDS011;54417;47.454;18.918;2022-10-29T17:20:08;59.50;;;28.42;;
67602;SDS011;54417;47.454;18.918;2022-10-29T17:25:33;64.10;;;30.55;;
67602;SDS011;54417;47.454;18.918;2022-10-29T17:30:57;60.88;;;28.48;;
67602;SDS011;54417;47.454;18.918;2022-10-29T17:36:21;52.85;;;26.83;;
67602;SDS011;54417;47.454;18.918;2022-10-29T17:41:46;57.67;;;28.63;;
67602;SDS011;54417;47.454;18.918;2022-10-29T17:47:10;55.88;;;31.60;;
67602;SDS011;54417;47.454;18.918;2022-10-29T17:52:33;60.47;;;31.88;;
67602;SDS011;54417;47.454;18.918;2022-10-29T17:57:59;60.35;;;33.60;;
67602;SDS011;54417;47.454;18.918;2022-10-29T18:03:24;60.65;;;31.70;;
67602;SDS011;54417;47.454;18.918;2022-10-29T18:08:48;61.22;;;32.45;;
67602;SDS011;54417;47.454;18.918;2022-10-29T18:14:13;55.10;;;32.15;;
67602;SDS011;54417;47.454;18.918;2022-10-29T18:19:37;57.65;;;33.05;;
67602;SDS011;54417;47.454;18.918;2022-10-29T18:25:00;52.60;;;31.27;;
67602;SDS011;54417;47.454;18.918;2022-10-29T18:30:26;56.28;;;33.42;;
67602;SDS011;54417;47.454;18.918;2022-10-29T18:35:52;61.83;;;33.88;;
67602;SDS011;54417;47.454;18.918;2022-10-29T18:41:16;57.00;;;31.50;;
67602;SDS011;54417;47.454;18.918;2022-10-29T18:46:41;55.13;;;30.45;;
67602;SDS011;54417;47.454;18.918;2022-10-29T18:52:05;50.90;;;30.73;;
67602;SDS011;54417;47.454;18.918;2022-10-29T18:57:29;56.08;;;31.90;;
67602;SDS011;54417;47.454;18.918;2022-10-29T19:02:54;48.85;;;29.42;;
67602;SDS011;54417;47.454;18.918;2022-10-29T19:08:18;49.65;;;29.58;;
67602;SDS011;54417;47.454;18.918;2022-10-29T19:13:42;54.97;;;30.33;;
67602;SDS011;54417;47.454;18.918;2022-10-29T19:19:08;55.40;;;31.90;;
67602;SDS011;54417;47.454;18.918;2022-10-29T19:24:34;52.30;;;30.08;;
67602;SDS011;54417;47.454;18.918;2022-10-29T19:29:57;55.80;;;30.45;;
67602;SDS011;54417;47.454;18.918;2022-10-29T19:35:23;58.08;;;31.73;;
67602;SDS011;54417;47.454;18.918;2022-10-29T19:40:46;61.83;;;32.30;;
67602;SDS011;54417;47.454;18.918;2022-10-29T19:46:12;60.97;;;32.97;;
67602;SDS011;54417;47.454;18.918;2022-10-29T19:51:39;59.60;;;32.15;;
67602;SDS011;54417;47.454;18.918;2022-10-29T19:57:03;65.13;;;33.13;;
67602;SDS011;54417;47.454;18.918;2022-10-29T20:02:26;65.07;;;33.95;;
67602;SDS011;54417;47.454;18.918;2022-10-29T20:07:52;62.25;;;32.05;;
67602;SDS011;54417;47.454;18.918;2022-10-29T20:13:16;57.88;;;30.40;;
67602;SDS011;54417;47.454;18.918;2022-10-29T20:18:40;53.40;;;31.20;;
67602;SDS011;54417;47.454;18.918;2022-10-29T20:24:06;54.10;;;28.75;;
67602;SDS011;54417;47.454;18.918;2022-10-29T20:29:30;53.55;;;29.55;;
67602;SDS011;54417;47.454;18.918;2022-10-29T20:34:54;56.60;;;30.75;;
67602;SDS011;54417;47.454;18.918;2022-10-29T20:40:22;65.53;;;33.28;;
67602;SDS011;54417;47.454;18.918;2022-10-29T20:45:46;67.28;;;35.58;;
67602;SDS011;54417;47.454;18.918;2022-10-29T20:51:09;70.80;;;38.28;;
67602;SDS011;54417;47.454;18.918;2022-10-29T20:56:36;72.63;;;36.40;;
67602;SDS011;54417;47.454;18.918;2022-10-29T21:01:59;67.53;;;32.85;;
67602;SDS011;54417;47.454;18.918;2022-10-29T21:07:23;68.00;;;37.00;;
67602;SDS011;54417;47.454;18.918;2022-10-29T21:12:48;69.63;;;35.92;;
67602;SDS011;54417;47.454;18.918;2022-10-29T21:18:12;86.40;;;41.28;;
67602;SDS011;54417;47.454;18.918;2022-10-29T21:23:36;85.15;;;41.65;;
67602;SDS011;54417;47.454;18.918;2022-10-29T21:29:02;90.45;;;43.75;;
67602;SDS011;54417;47.454;18.918;2022-10-29T21:34:25;83.40;;;41.20;;
67602;SDS011;54417;47.454;18.918;2022-10-29T21:39:49;82.47;;;40.45;;
67602;SDS011;54417;47.454;18.918;2022-10-29T21:45:14;82.78;;;40.05;;
67602;SDS011;54417;47.454;18.918;2022-10-29T21:50:38;76.13;;;39.53;;
67602;SDS011;54417;47.454;18.918;2022-10-29T21:56:02;78.93;;;39.72;;
67602;SDS011;54417;47.454;18.918;2022-10-29T22:01:29;81.30;;;39.05;;
67602;SDS011;54417;47.454;18.918;2022-10-29T22:06:53;77.50;;;39.72;;
67602;SDS011;54417;47.454;18.918;2022-10-29T22:12:17;80.93;;;39.95;;
67602;SDS011;54417;47.454;18.918;2022-10-29T22:17:43;80.20;;;39.67;;
67602;SDS011;54417;47.454;18.918;2022-10-29T22:23:06;75.35;;;38.03;;
67602;SDS011;54417;47.454;18.918;2022-10-29T22:28:30;73.53;;;37.13;;
67602;SDS011;54417;47.454;18.918;2022-10-29T22:33:55;77.45;;;38.08;;
67602;SDS011;54417;47.454;18.918;2022-10-29T22:39:19;84.15;;;39.05;;
67602;SDS011;54417;47.454;18.918;2022-10-29T22:44:42;70.35;;;35.03;;
67602;SDS011;54417;47.454;18.918;2022-10-29T22:50:08;60.65;;;32.75;;
67602;SDS011;54417;47.454;18.918;2022-10-29T22:55:32;80.53;;;37.67;;
67602;SDS011;54417;47.454;18.918;2022-10-29T23:00:59;73.80;;;36.70;;
67602;SDS011;54417;47.454;18.918;2022-10-29T23:06:25;72.78;;;35.53;;
67602;SDS011;54417;47.454;18.918;2022-10-29T23:11:50;63.53;;;33.00;;
67602;SDS011;54417;47.454;18.918;2022-10-29T23:17:13;76.78;;;36.33;;
67602;SDS011;54417;47.454;18.918;2022-10-29T23:22:41;71.13;;;34.35;;
67602;SDS011;54417;47.454;18.918;2022-10-29T23:28:05;71.70;;;34.40;;
67602;SDS011;54417;47.454;18.918;2022-10-29T23:33:29;70.47;;;36.25;;
67602;SDS011;54417;47.454;18.918;2022-10-29T23:38:55;72.93;;;35.70;;
67602;SDS011;54417;47.454;18.918;2022-10-29T23:44:19;72.38;;;34.88;;
67602;SDS011;54417;47.454;18.918;2022-10-29T23:49:43;73.38;;;34.35;;
67602;SDS011;54417;47.454;18.918;2022-10-29T23:55:08;80.15;;;37.22;;
